Time;durP1;ratioP1;P1;durP2;ratioP2;P2;SDS_P1;SDS_P2;PMS_P1;PMS_P2;Temp;Humidity;BMP_temperature;BMP_pressure;BME280_temperature;BME280_humidity;BME280_pressure;Samples;Min_cycle;Max_cycle;Signal;HPM_P1;HPM_P2
2021/04/22 00:01:32;;;;;;;;;;;;;;;12.11;38.84;102550.59;5027942;28;19985;-89
2021/04/22 00:03:58;;;;;;;;;;;;;;;12.34;38.46;102558.09;5050476;28;19901;-88
2021/04/22 00:06:31;;;;;;;;;;;;;;;11.77;39.53;102558.66;5050027;28;19940;-89
2021/04/22 00:09:01;;;;;;;;;;;;;;;11.55;40.24;102564.63;5050078;28;19917;-90
2021/04/22 00:11:30;;;;;;;;;;;;;;;12.00;39.34;102563.53;5050076;28;19929;-90
2021/04/22 00:14:12;;;;;;;;;;;;;;;11.81;39.54;102566.69;5050713;28;19928;-89
2021/04/22 00:16:54;;;;;;;;;;;;;;;11.65;39.78;102566.16;5048044;28;19921;-91
2021/04/22 00:19:41;;;;;;;;;;;;;;;11.59;40.29;102560.88;5032919;28;20306;-90
2021/04/22 00:22:35;;;;;;;;;;;;;;;11.84;39.65;102565.72;5047078;28;19940;-93
2021/04/22 00:25:01;;;;;;;;;;;;;;;11.78;39.71;102564.06;5046312;28;20363;-90
2021/04/22 00:27:45;;;;;;;;;;;;;;;11.76;39.56;102562.28;5029825;28;19943;-90
2021/04/22 00:30:18;;;;;;;;;;;;;;;11.79;39.74;102570.34;5045408;28;19968;-91
2021/04/22 00:32:48;;;;;;;;;;;;;;;11.85;39.53;102570.19;5045877;28;20291;-91
2021/04/22 00:35:16;;;;;;;;;;;;;;;11.70;39.91;102577.81;5046226;28;19921;-89
2021/04/22 00:37:56;;;;;;;;;;;;;;;11.70;39.69;102583.22;5046496;28;20016;-90
2021/04/22 00:40:25;;;;;;;;;;;;;;;11.64;39.65;102577.03;5032954;28;19988;-89
2021/04/22 00:42:52;;;;;;;;;;;;;;;11.54;39.79;102565.53;5044609;28;19913;-90
2021/04/22 00:45:17;;;;;;;;;;;;;;;11.68;39.63;102576.97;5047289;28;20019;-90
2021/04/22 00:47:43;;;;;;;;;;;;;;;11.36;39.98;102569.56;5046529;28;19925;-89
2021/04/22 00:50:14;;;;;;;;;;;;;;;11.58;39.55;102577.19;5030655;28;19922;-92
2021/04/22 00:52:51;;;;;;;;;;;;;;;11.31;40.30;102572.41;5047272;28;19921;-88
2021/04/22 00:55:23;;;;;;;;;;;;;;;11.20;40.62;102585.28;5048717;28;19925;-92
2021/04/22 00:57:49;;;;;;;;;;;;;;;11.67;39.57;102575.16;5048552;28;20425;-91
2021/04/22 01:00:17;;;;;;;;;;;;;;;11.40;40.20;102584.84;5028818;28;19925;-89
2021/04/22 01:02:43;;;;;;;;;;;;;;;11.42;40.20;102584.81;5030487;28;19922;-92
2021/04/22 01:05:11;;;;;;;;;;;;;;;11.25;40.75;102587.91;5046317;28;19911;-91
2021/04/22 01:07:43;;;;;;;;;;;;;;;11.25;40.43;102574.38;5047359;28;20371;-92
2021/04/22 01:10:13;;;;;;;;;;;;;;;11.29;40.46;102581.47;5046039;28;20016;-89
2021/04/22 01:12:49;;;;;;;;;;;;;;;11.53;39.96;102585.44;5046006;28;19913;-91
2021/04/22 01:15:29;;;;;;;;;;;;;;;11.70;39.63;102583.22;5046998;28;19988;-89
2021/04/22 01:17:55;;;;;;;;;;;;;;;11.51;39.74;102587.31;5046534;28;19920;-91
2021/04/22 01:20:33;;;;;;;;;;;;;;;10.84;41.44;102587.88;5048124;28;19989;-91
2021/04/22 01:23:05;;;;;;;;;;;;;;;10.56;41.89;102592.94;5045188;28;20294;-90
2021/04/22 01:25:36;;;;;;;;;;;;;;;10.18;42.57;102598.13;5027145;28;19925;-89
2021/04/22 01:28:24;;;;;;;;;;;;;;;10.92;41.21;102594.00;5046354;28;19928;-90
2021/04/22 01:31:14;;;;;;;;;;;;;;;11.61;39.63;102597.00;5045878;28;19938;-89
2021/04/22 01:33:42;;;;;;;;;;;;;;;11.66;39.56;102595.06;5045988;28;20409;-89
2021/04/22 01:36:14;;;;;;;;;;;;;;;10.89;41.07;102598.63;5047148;28;19901;-89
2021/04/22 01:38:56;;;;;;;;;;;;;;;11.02;40.86;102602.84;5046425;28;19993;-90
2021/04/22 01:41:22;;;;;;;;;;;;;;;11.22;40.38;102601.50;5028650;28;19916;-90
2021/04/22 01:43:48;;;;;;;;;;;;;;;11.54;39.89;102606.19;5046183;28;19920;-91
2021/04/22 01:46:38;;;;;;;;;;;;;;;11.11;40.21;102608.06;5082620;28;19927;-92
2021/04/22 01:49:07;;;;;;;;;;;;;;;10.76;41.40;102608.78;5067792;28;19920;-91
2021/04/22 01:52:09;;;;;;;;;;;;;;;11.17;40.52;102609.72;5066849;28;20026;-92
2021/04/22 01:54:41;;;;;;;;;;;;;;;10.60;41.26;102622.63;5066770;28;19912;-90
2021/04/22 01:57:13;;;;;;;;;;;;;;;10.72;41.53;102628.72;5067575;28;19917;-92
2021/04/22 02:02:29;;;;;;;;;;;;;;;11.31;39.95;102623.00;5063915;28;19984;-90
2021/04/22 02:04:55;;;;;;;;;;;;;;;11.00;40.34;102618.22;5064121;28;20000;-91
2021/04/22 02:07:28;;;;;;;;;;;;;;;11.02;40.59;102619.09;5047319;28;19928;-91
2021/04/22 02:10:12;;;;;;;;;;;;;;;;;;;;;
2021/04/22 02:15:28;;;;;;;;;;;;;;;;;;;;;
2021/04/22 02:18:00;;;;;;;;;;;;;;;11.09;40.27;102626.16;5005090;28;19986;-92
2021/04/22 02:20:37;;;;;;;;;;;;;;;10.91;40.74;102627.41;4982537;28;19936;-92
2021/04/22 02:23:28;;;;;;;;;;;;;;;11.02;40.53;102623.59;4996199;28;19968;-93
2021/04/22 02:27:00;;;;;;;;;;;;;;;11.05;40.63;102623.53;4995519;28;19921;-92
2021/04/22 02:30:03;;;;;;;;;;;;;;;11.28;40.05;102621.22;5089185;28;19924;-91
2021/04/22 02:32:55;;;;;;;;;;;;;;;11.54;39.17;102622.47;5080189;28;19923;-91
2021/04/22 02:35:27;;;;;;;;;;;;;;;11.12;40.36;102623.38;5088683;28;19921;-92
2021/04/22 02:37:57;;;;;;;;;;;;;;;11.13;40.62;102622.47;5078806;28;19916;-90
2021/04/22 02:43:29;;;;;;;;;;;;;;;11.46;39.77;102614.50;5089618;28;19928;-89
2021/04/22 02:46:05;;;;;;;;;;;;;;;10.92;40.68;102618.38;5088597;28;19955;-90
2021/04/22 02:48:43;;;;;;;;;;;;;;;11.59;39.37;102617.81;5089055;28;20423;-90
2021/04/22 02:51:20;;;;;;;;;;;;;;;;;;;;;
2021/04/22 02:53:58;;;;;;;;;;;;;;;11.49;39.56;102611.72;5091094;28;19936;-90
2021/04/22 02:56:23;;;;;;;;;;;;;;;11.30;39.97;102615.78;5087257;28;19917;-91
2021/04/22 02:59:05;;;;;;;;;;;;;;;11.28;39.72;102612.22;5090346;28;19951;-90
2021/04/22 03:04:20;;;;;;;;;;;;;;;11.65;38.76;102616.78;5054530;28;19936;-91
2021/04/22 03:06:52;;;;;;;;;;;;;;;11.62;39.04;102625.00;5102512;22;19925;-91
2021/04/22 03:09:38;;;;;;;;;;;;;;;11.70;38.47;102626.59;5030842;28;20000;-90
2021/04/22 03:14:56;;;;;;;;;;;;;;;11.56;38.89;102630.56;5049262;28;19913;-92
2021/04/22 03:17:31;;;;;;;;;;;;;;;11.48;39.40;102633.44;5049788;28;19932;-90
2021/04/22 03:20:01;;;;;;;;;;;;;;;11.39;39.17;102622.81;5031493;28;19940;-90
2021/04/22 03:22:51;;;;;;;;;;;;;;;11.41;39.10;102632.69;5049319;28;19972;-91
2021/04/22 03:28:42;;;;;;;;;;;;;;;11.36;39.24;102640.03;5050624;28;19917;-94
2021/04/22 03:31:17;;;;;;;;;;;;;;;11.30;39.49;102634.75;5048585;28;19918;-90
2021/04/22 03:33:46;;;;;;;;;;;;;;;11.38;39.42;102640.88;5047115;28;19928;-89
2021/04/22 03:39:34;;;;;;;;;;;;;;;11.15;39.99;102638.69;4987541;28;20017;-89
2021/04/22 03:42:04;;;;;;;;;;;;;;;11.40;39.52;102638.13;4988158;28;19918;-91
2021/04/22 03:44:49;;;;;;;;;;;;;;;11.34;39.38;102637.34;4971429;28;20323;-90
2021/04/22 03:47:23;;;;;;;;;;;;;;;11.24;39.61;102638.47;4988030;28;20008;-91
2021/04/22 03:49:56;;;;;;;;;;;;;;;11.24;39.77;102640.31;4986916;28;19918;-92
2021/04/22 03:52:42;;;;;;;;;;;;;;;10.95;40.31;102639.97;4948266;29;19919;-89
2021/04/22 03:55:23;;;;;;;;;;;;;;;11.24;39.84;102630.34;4942699;29;19919;-91
2021/04/22 03:57:53;;;;;;;;;;;;;;;11.17;39.94;102628.69;4991759;28;19996;-89
2021/04/22 04:00:26;;;;;;;;;;;;;;;11.34;39.56;102631.06;4973843;28;19921;-90
2021/04/22 04:02:58;;;;;;;;;;;;;;;11.17;39.92;102634.09;4990160;28;19922;-89
2021/04/22 04:05:24;;;;;;;;;;;;;;;11.25;39.49;102639.38;4989649;28;19972;-90
2021/04/22 04:07:56;;;;;;;;;;;;;;;11.06;39.69;102638.88;4990094;28;20174;-93
2021/04/22 04:10:37;;;;;;;;;;;;;;;11.22;39.53;102645.75;5005053;28;19928;-92
2021/04/22 04:13:09;;;;;;;;;;;;;;;11.15;39.70;102639.56;4988675;28;19918;-90
2021/04/22 04:15:36;;;;;;;;;;;;;;;10.95;40.03;102639.09;4989528;28;19925;-89
2021/04/22 04:18:05;;;;;;;;;;;;;;;11.14;39.78;102645.00;5045201;28;19913;-88
2021/04/22 04:20:33;;;;;;;;;;;;;;;11.03;39.93;102639.81;5030602;28;19921;-89
2021/04/22 04:23:02;;;;;;;;;;;;;;;11.14;39.56;102643.22;5048271;28;19901;-91
2021/04/22 04:25:28;;;;;;;;;;;;;;;11.15;39.74;102642.28;5029547;28;19918;-90
2021/04/22 04:27:55;;;;;;;;;;;;;;;11.07;39.94;102644.25;5045745;28;19917;-90
2021/04/22 04:30:27;;;;;;;;;;;;;;;11.18;39.54;102644.91;5046032;28;19917;-90
2021/04/22 04:33:02;;;;;;;;;;;;;;;10.87;39.97;102647.38;5030258;28;19917;-90
2021/04/22 04:35:36;;;;;;;;;;;;;;;11.14;39.31;102653.13;5232124;22;19929;-89
2021/04/22 04:38:04;;;;;;;;;;;;;;;11.11;39.47;102658.63;5046418;28;19961;-91
2021/04/22 04:40:50;;;;;;;;;;;;;;;11.11;39.26;102653.19;5045573;28;19968;-90
2021/04/22 04:43:15;;;;;;;;;;;;;;;11.11;39.52;102653.19;5045476;28;19921;-90
2021/04/22 04:45:43;;;;;;;;;;;;;;;11.27;39.18;102646.53;5046017;28;19921;-89
2021/04/22 04:48:09;;;;;;;;;;;;;;;11.05;39.29;102650.63;5044921;28;19917;-90
2021/04/22 04:51:01;;;;;;;;;;;;;;;11.13;39.63;102651.38;5047390;28;19925;-89
2021/04/22 04:53:48;;;;;;;;;;;;;;;10.93;39.96;102659.88;5046794;28;19924;-91
2021/04/22 04:56:17;;;;;;;;;;;;;;;10.50;40.91;102668.84;5071028;22;20502;-90
2021/04/22 04:58:49;;;;;;;;;;;;;;;10.42;41.31;102674.38;5047502;28;19935;-92
2021/04/22 05:01:15;;;;;;;;;;;;;;;10.91;40.16;102670.75;5028442;28;19917;-91
2021/04/22 05:03:42;;;;;;;;;;;;;;;10.62;40.84;102664.06;5027494;28;19956;-92
2021/04/22 05:06:10;;;;;;;;;;;;;;;10.83;40.54;102672.72;5025973;28;19924;-90
2021/04/22 05:08:36;;;;;;;;;;;;;;;10.69;40.84;102670.28;5025890;28;20424;-90
2021/04/22 05:11:04;;;;;;;;;;;;;;;10.56;41.30;102682.25;5024996;28;19916;-92
2021/04/22 05:13:29;;;;;;;;;;;;;;;10.97;40.53;102678.75;5010339;28;19921;-91
2021/04/22 05:15:58;;;;;;;;;;;;;;;11.16;40.06;102682.00;5026327;28;19917;-91
2021/04/22 05:18:23;;;;;;;;;;;;;;;11.33;39.56;102684.34;5026537;28;19918;-90
2021/04/22 05:20:48;;;;;;;;;;;;;;;11.09;40.03;102687.56;5025402;28;19923;-90
2021/04/22 05:23:17;;;;;;;;;;;;;;;11.53;39.04;102691.16;5026652;28;19997;-92
2021/04/22 05:25:42;;;;;;;;;;;;;;;11.24;40.30;102695.38;5025162;28;19929;-91
2021/04/22 05:28:07;;;;;;;;;;;;;;;11.37;39.94;102700.53;5023307;28;20020;-89
2021/04/22 05:30:33;;;;;;;;;;;;;;;11.63;39.56;102697.28;5023713;28;19924;-86
2021/04/22 05:33:01;;;;;;;;;;;;;;;11.49;40.11;102701.19;5040556;28;19917;-89
2021/04/22 05:35:26;;;;;;;;;;;;;;;11.35;40.58;102708.69;5018827;28;19957;-92
2021/04/22 05:37:51;;;;;;;;;;;;;;;11.18;41.12;102714.47;5042180;28;19948;-90
2021/04/22 05:40:17;;;;;;;;;;;;;;;12.08;39.63;102709.81;5023334;28;19917;-87
2021/04/22 05:42:43;;;;;;;;;;;;;;;12.13;39.36;102710.63;5022007;28;19917;-86
2021/04/22 05:45:08;;;;;;;;;;;;;;;12.46;39.01;102718.84;5040115;28;19917;-87
2021/04/22 05:47:33;;;;;;;;;;;;;;;12.60;38.64;102711.22;5022373;28;19917;-88
2021/04/22 05:50:01;;;;;;;;;;;;;;;12.49;39.27;102716.94;5022558;28;19925;-90
2021/04/22 05:52:26;;;;;;;;;;;;;;;12.83;39.03;102716.06;5040590;28;19927;-89
2021/04/22 05:54:52;;;;;;;;;;;;;;;13.10;38.76;102714.41;5024577;28;19956;-89
2021/04/22 05:57:17;;;;;;;;;;;;;;;13.16;38.64;102715.16;5041113;28;19916;-82
2021/04/22 05:59:42;;;;;;;;;;;;;;;13.14;38.41;102717.03;5056809;28;20294;-84
2021/04/22 06:02:07;;;;;;;;;;;;;;;13.54;37.63;102708.63;5058928;28;19924;-86
2021/04/22 06:04:33;;;;;;;;;;;;;;;13.53;37.85;102711.41;5041362;28;19921;-85
2021/04/22 06:06:58;;;;;;;;;;;;;;;13.56;37.81;102711.31;5039725;28;19921;-84
2021/04/22 06:09:23;;;;;;;;;;;;;;;13.33;38.43;102721.00;5040640;28;19917;-88
2021/04/22 06:11:48;;;;;;;;;;;;;;;13.37;38.57;102730.88;5040836;28;19917;-84
2021/04/22 06:14:14;;;;;;;;;;;;;;;13.19;39.02;102725.94;5058705;28;19917;-87
2021/04/22 06:16:39;;;;;;;;;;;;;;;12.71;40.08;102741.72;5058773;28;20371;-86
2021/04/22 06:19:05;;;;;;;;;;;;;;;13.23;39.49;102730.34;5059273;28;19976;-85
2021/04/22 06:21:30;;;;;;;;;;;;;;;13.61;38.71;102729.25;5041409;28;20382;-87
2021/04/22 06:23:56;;;;;;;;;;;;;;;13.63;38.54;102734.63;5040499;28;19940;-83
2021/04/22 06:26:21;;;;;;;;;;;;;;;13.87;38.50;102741.16;5059641;28;19967;-85
2021/04/22 06:28:48;;;;;;;;;;;;;;;14.06;38.59;102733.31;5040888;28;19924;-87
2021/04/22 06:31:13;;;;;;;;;;;;;;;14.11;37.37;102736.78;5041681;28;19921;-86
2021/04/22 06:33:38;;;;;;;;;;;;;;;14.29;36.79;102738.00;5060084;28;20031;-87
2021/04/22 06:36:07;;;;;;;;;;;;;;;13.23;37.80;102744.84;5041533;28;19917;-91
2021/04/22 06:38:32;;;;;;;;;;;;;;;13.35;38.85;102751.78;5041127;28;19956;-85
2021/04/22 06:40:58;;;;;;;;;;;;;;;14.32;37.18;102750.63;5041177;28;19971;-87
2021/04/22 06:43:23;;;;;;;;;;;;;;;14.23;36.14;102748.22;5059217;28;19916;-86
2021/04/22 06:45:48;;;;;;;;;;;;;;;14.58;35.66;102751.59;5044654;28;20367;-86
2021/04/22 06:48:14;;;;;;;;;;;;;;;14.98;35.07;102744.81;5046021;28;19917;-86
2021/04/22 06:50:40;;;;;;;;;;;;;;;14.89;35.31;102746.88;5042176;28;20374;-87
2021/04/22 06:53:05;;;;;;;;;;;;;;;15.12;34.57;102747.03;5041390;28;19924;-85
2021/04/22 06:55:31;;;;;;;;;;;;;;;15.04;34.26;102755.47;5041252;28;20366;-87
2021/04/22 06:57:59;;;;;;;;;;;;;;;14.79;33.57;102761.78;5041857;28;19923;-87
2021/04/22 07:00:28;;;;;;;;;;;;;;;14.71;34.16;102753.88;5042343;28;20370;-90
2021/04/22 07:02:53;;;;;;;;;;;;;;;15.99;32.22;102750.09;5041181;28;19962;-87
2021/04/22 07:05:22;;;;;;;;;;;;;;;15.36;34.05;102753.41;5043107;28;19917;-92
2021/04/22 07:07:47;;;;;;;;;;;;;;;14.91;33.86;102762.31;5043803;28;19917;-88
2021/04/22 07:10:14;;;;;;;;;;;;;;;14.54;34.54;102761.72;5045857;28;19943;-89
2021/04/22 07:12:49;;;;;;;;;;;;;;;14.95;34.26;102766.72;5056205;28;19923;-90
2021/04/22 07:15:30;;;;;;;;;;;;;;;14.70;34.48;102767.53;5067927;28;19920;-88
2021/04/22 07:17:58;;;;;;;;;;;;;;;14.59;34.59;102773.34;5047994;28;19972;-86
2021/04/22 07:20:24;;;;;;;;;;;;;;;14.83;33.71;102770.75;5047705;28;19917;-84
2021/04/22 07:22:49;;;;;;;;;;;;;;;15.04;32.96;102775.44;5045551;28;19936;-86
2021/04/22 07:25:15;;;;;;;;;;;;;;;14.34;34.07;102781.41;5063370;28;19932;-84
2021/04/22 07:27:41;;;;;;;;;;;;;;;15.11;33.08;102777.94;5043986;28;19978;-87
2021/04/22 07:30:09;;;;;;;;;;;;;;;15.37;33.80;102775.16;5064712;28;19920;-87
2021/04/22 07:32:35;;;;;;;;;;;;;;;14.77;33.68;102781.88;5046383;28;19983;-89
2021/04/22 07:35:01;;;;;;;;;;;;;;;14.41;33.39;102777.56;5046332;28;19921;-87
2021/04/22 07:37:26;;;;;;;;;;;;;;;14.56;34.16;102778.88;5045207;28;19917;-87
2021/04/22 07:39:53;;;;;;;;;;;;;;;15.08;33.33;102776.22;5045674;28;19923;-87
2021/04/22 07:42:18;;;;;;;;;;;;;;;15.11;32.75;102784.28;5045241;28;19977;-86
2021/04/22 07:44:47;;;;;;;;;;;;;;;14.95;32.75;102789.41;5061685;28;20348;-87
2021/04/22 07:47:17;;;;;;;;;;;;;;;15.44;32.47;102786.72;5045629;28;19920;-87
2021/04/22 07:49:43;;;;;;;;;;;;;;;15.54;32.21;102785.44;5044606;28;19921;-86
2021/04/22 07:52:09;;;;;;;;;;;;;;;15.82;31.67;102799.91;5044683;28;19917;-86
2021/04/22 07:54:34;;;;;;;;;;;;;;;15.82;31.75;102798.09;5044707;28;19917;-86
2021/04/22 07:56:59;;;;;;;;;;;;;;;16.21;31.16;102797.44;5043877;28;19955;-86
2021/04/22 07:59:24;;;;;;;;;;;;;;;15.88;31.85;102799.66;5044108;28;20274;-86
2021/04/22 08:01:50;;;;;;;;;;;;;;;16.77;30.71;102793.34;5043180;28;19913;-86
2021/04/22 08:04:15;;;;;;;;;;;;;;;16.11;31.65;102801.50;5043261;28;19917;-86
2021/04/22 08:06:40;;;;;;;;;;;;;;;16.97;30.57;102799.81;5044742;28;19916;-86
2021/04/22 08:09:05;;;;;;;;;;;;;;;17.18;29.43;102800.69;5060175;28;19917;-85
2021/04/22 08:11:31;;;;;;;;;;;;;;;17.74;29.35;102806.41;5043682;28;19966;-86
2021/04/22 08:13:58;;;;;;;;;;;;;;;17.72;29.20;102803.72;5043666;28;19999;-85
2021/04/22 08:16:25;;;;;;;;;;;;;;;18.22;28.11;102799.56;5039516;28;19959;-82
2021/04/22 08:18:50;;;;;;;;;;;;;;;17.54;29.15;102805.47;5032845;28;19924;-85
2021/04/22 08:21:17;;;;;;;;;;;;;;;18.24;27.88;102794.94;5038105;28;19917;-85
2021/04/22 08:23:42;;;;;;;;;;;;;;;17.62;29.96;102799.63;5040228;28;19955;-83
2021/04/22 08:26:09;;;;;;;;;;;;;;;17.89;28.39;102805.75;5041270;28;19932;-82
2021/04/22 08:28:35;;;;;;;;;;;;;;;17.52;28.75;102807.41;5046763;28;20008;-85
2021/04/22 08:31:03;;;;;;;;;;;;;;;15.82;29.94;102806.28;5060678;28;19916;-85
2021/04/22 08:33:34;;;;;;;;;;;;;;;16.94;28.84;102800.84;5045136;28;19935;-85
2021/04/22 08:35:59;;;;;;;;;;;;;;;16.43;29.41;102808.38;5044626;28;19920;-83
2021/04/22 08:38:25;;;;;;;;;;;;;;;17.63;28.36;102801.44;5047323;28;19985;-84
2021/04/22 08:40:51;;;;;;;;;;;;;;;16.66;29.61;102801.97;5062228;28;20070;-84
2021/04/22 08:43:16;;;;;;;;;;;;;;;16.60;29.43;102815.88;5040578;28;20367;-82
2021/04/22 08:45:42;;;;;;;;;;;;;;;16.53;29.07;102808.91;5041591;28;19913;-86
2021/04/22 08:48:08;;;;;;;;;;;;;;;16.89;28.82;102805.59;5036982;28;19924;-81
2021/04/22 08:50:34;;;;;;;;;;;;;;;17.51;28.03;102811.09;5037978;28;19979;-84
2021/04/22 08:53:01;;;;;;;;;;;;;;;17.92;27.41;102807.41;5037345;28;19928;-84
2021/04/22 08:55:28;;;;;;;;;;;;;;;18.72;26.64;102806.22;5034876;28;19934;-83
2021/04/22 08:57:53;;;;;;;;;;;;;;;18.13;27.91;102802.75;5019648;28;19960;-82
2021/04/22 09:00:21;;;;;;;;;;;;;;;17.58;28.52;102804.38;5017746;28;19917;-82
2021/04/22 09:02:46;;;;;;;;;;;;;;;16.99;29.35;102806.09;5020219;28;19917;-82
2021/04/22 09:05:12;;;;;;;;;;;;;;;17.17;29.27;102812.63;5018658;28;19925;-85
2021/04/22 09:07:39;;;;;;;;;;;;;;;16.50;30.50;102819.97;5017725;28;20395;-82
2021/04/22 09:10:05;;;;;;;;;;;;;;;16.96;29.84;102809.84;5035145;28;19924;-85
2021/04/22 09:12:30;;;;;;;;;;;;;;;18.38;28.27;102808.81;5018086;28;20330;-84
2021/04/22 09:14:57;;;;;;;;;;;;;;;18.74;27.29;102801.59;5031505;28;20008;-83
2021/04/22 09:17:22;;;;;;;;;;;;;;;18.26;27.80;102803.94;5044167;28;19941;-84
2021/04/22 09:19:48;;;;;;;;;;;;;;;17.81;27.42;102803.31;5038050;28;19984;-85
2021/04/22 09:22:13;;;;;;;;;;;;;;;18.62;26.85;102803.09;5055425;28;19921;-86
2021/04/22 09:24:39;;;;;;;;;;;;;;;19.61;26.00;102803.44;5055243;28;20011;-86
2021/04/22 09:27:07;;;;;;;;;;;;;;;19.68;25.64;102802.13;5040399;28;19940;-86
2021/04/22 09:29:34;;;;;;;;;;;;;;;19.50;25.88;102800.41;5056386;28;19925;-86
2021/04/22 09:32:09;;;;;;;;;;;;;;;19.06;26.18;102810.91;5039405;28;19925;-86
2021/04/22 09:34:34;;;;;;;;;;;;;;;19.56;25.77;102798.19;5053889;28;19921;-85
2021/04/22 09:37:02;;;;;;;;;;;;;;;20.10;24.66;102803.47;5054920;28;20267;-87
2021/04/22 09:39:28;;;;;;;;;;;;;;;16.77;28.12;102806.09;5055720;28;19917;-86
2021/04/22 09:41:56;;;;;;;;;;;;;;;18.42;26.44;102813.19;5056409;28;19917;-86
2021/04/22 09:44:22;;;;;;;;;;;;;;;18.04;26.69;102805.00;5040378;28;20402;-84
2021/04/22 09:46:49;;;;;;;;;;;;;;;18.02;27.51;102812.38;5055001;28;19962;-87
2021/04/22 09:49:15;;;;;;;;;;;;;;;18.69;26.58;102806.41;5055393;28;19917;-86
2021/04/22 09:51:42;;;;;;;;;;;;;;;19.03;26.01;102805.59;5055433;28;19917;-87
2021/04/22 09:54:09;;;;;;;;;;;;;;;19.99;25.07;102804.09;5055610;28;19916;-86
2021/04/22 09:56:51;;;;;;;;;;;;;;;19.38;26.49;102802.81;5055138;28;19990;-85
2021/04/22 09:59:18;;;;;;;;;;;;;;;20.02;24.85;102805.78;5055137;28;19917;-86
2021/04/22 10:01:45;;;;;;;;;;;;;;;20.33;24.36;102804.03;5055504;28;19948;-85
2021/04/22 10:04:10;;;;;;;;;;;;;;;19.73;25.30;102807.38;5054624;28;19940;-86
2021/04/22 10:06:45;;;;;;;;;;;;;;;19.25;24.92;102816.31;5040861;28;20379;-87
2021/04/22 10:09:10;;;;;;;;;;;;;;;19.68;24.20;102813.13;5016624;28;19917;-85
2021/04/22 10:11:45;;;;;;;;;;;;;;;20.16;24.18;102805.00;5033506;28;19964;-86
2021/04/22 10:14:10;;;;;;;;;;;;;;;18.71;25.80;102810.84;5018127;28;20024;-85
2021/04/22 10:16:36;;;;;;;;;;;;;;;21.02;23.63;102799.94;5041479;28;19975;-86
2021/04/22 10:19:01;;;;;;;;;;;;;;;21.08;23.75;102815.22;5054258;28;20077;-86
2021/04/22 10:21:28;;;;;;;;;;;;;;;21.75;23.44;102807.38;5053739;28;19901;-85
2021/04/22 10:24:03;;;;;;;;;;;;;;;20.52;24.59;102804.72;5054820;28;19967;-84
2021/04/22 10:26:28;;;;;;;;;;;;;;;22.33;23.14;102810.13;5056230;28;19925;-86
2021/04/22 10:28:54;;;;;;;;;;;;;;;22.17;22.17;102812.97;5055745;28;19925;-87
2021/04/22 10:31:21;;;;;;;;;;;;;;;20.73;24.41;102804.47;5054600;28;19929;-87
2021/04/22 10:33:47;;;;;;;;;;;;;;;20.38;25.27;102804.63;5030531;28;19924;-85
2021/04/22 10:36:12;;;;;;;;;;;;;;;19.44;26.38;102816.22;5047782;28;19921;-83
2021/04/22 10:38:37;;;;;;;;;;;;;;;19.75;26.15;102813.69;5030885;28;20006;-90
2021/04/22 10:41:03;;;;;;;;;;;;;;;19.57;26.81;102813.69;5021841;28;19957;-84
2021/04/22 10:43:29;;;;;;;;;;;;;;;20.35;25.67;102818.53;5037518;28;19924;-84
2021/04/22 10:45:56;;;;;;;;;;;;;;;19.62;25.61;102818.94;5023768;28;19963;-87
2021/04/22 10:48:29;;;;;;;;;;;;;;;18.34;27.74;102818.19;5027008;28;19928;-84
2021/04/22 10:50:54;;;;;;;;;;;;;;;19.41;26.52;102810.00;5064679;28;20394;-87
2021/04/22 10:53:21;;;;;;;;;;;;;;;20.37;25.37;102811.13;5043903;28;19960;-87
2021/04/22 10:55:47;;;;;;;;;;;;;;;20.83;24.16;102811.16;5052521;28;19932;-86
2021/04/22 10:58:12;;;;;;;;;;;;;;;20.70;24.40;102808.28;5057338;28;19947;-88
2021/04/22 11:00:37;;;;;;;;;;;;;;;20.31;24.31;102816.97;5045392;28;19913;-87
2021/04/22 11:03:03;;;;;;;;;;;;;;;21.77;23.83;102816.44;5044711;28;20302;-86
2021/04/22 11:05:33;;;;;;;;;;;;;;;21.62;23.36;102811.91;5048380;28;20290;-86
2021/04/22 11:08:04;;;;;;;;;;;;;;;21.01;25.14;102814.69;5039610;28;19917;-85
2021/04/22 11:10:43;;;;;;;;;;;;;;;21.45;24.45;102810.16;5039275;28;19918;-87
2021/04/22 11:13:09;;;;;;;;;;;;;;;21.73;24.02;102811.22;5023950;28;20025;-86
2021/04/22 11:15:34;;;;;;;;;;;;;;;20.72;25.03;102805.44;5023923;28;20032;-85
2021/04/22 11:18:08;;;;;;;;;;;;;;;20.04;25.63;102809.31;5043252;28;19917;-87
2021/04/22 11:20:37;;;;;;;;;;;;;;;20.59;26.33;102805.22;5030770;28;19932;-86
2021/04/22 11:23:11;;;;;;;;;;;;;;;20.54;25.86;102805.50;5054338;28;19925;-87
2021/04/22 11:25:45;;;;;;;;;;;;;;;20.08;26.32;102805.44;5048466;28;19925;-86
2021/04/22 11:28:10;;;;;;;;;;;;;;;21.38;24.48;102803.28;5064536;28;19921;-87
2021/04/22 11:30:35;;;;;;;;;;;;;;;21.74;24.26;102804.72;5063117;28;19924;-86
2021/04/22 11:33:01;;;;;;;;;;;;;;;19.79;26.67;102809.81;5063245;28;19918;-85
2021/04/22 11:35:28;;;;;;;;;;;;;;;20.84;24.82;102801.94;5048832;28;19976;-86
2021/04/22 11:37:55;;;;;;;;;;;;;;;19.60;26.64;102805.28;5045728;28;19925;-84
2021/04/22 11:40:25;;;;;;;;;;;;;;;19.64;27.71;102806.91;5049044;28;19967;-83
2021/04/22 11:42:51;;;;;;;;;;;;;;;19.71;27.38;102801.97;5048600;28;19924;-86
2021/04/22 11:45:18;;;;;;;;;;;;;;;19.56;27.62;102800.94;5061009;28;19908;-87
2021/04/22 11:47:49;;;;;;;;;;;;;;;19.36;27.39;102806.63;5063527;28;19917;-88
2021/04/22 11:50:17;;;;;;;;;;;;;;;19.33;27.87;102801.31;5063058;28;19917;-87
2021/04/22 11:52:53;;;;;;;;;;;;;;;19.43;27.78;102806.22;5063206;28;19944;-89
2021/04/22 11:55:19;;;;;;;;;;;;;;;19.27;27.43;102805.28;5064222;28;19932;-84
2021/04/22 11:58:05;;;;;;;;;;;;;;;19.17;28.54;102806.72;5047400;28;19917;-86
2021/04/22 12:00:31;;;;;;;;;;;;;;;19.78;26.78;102808.94;5050160;28;19924;-87
2021/04/22 12:02:57;;;;;;;;;;;;;;;20.14;27.07;102788.59;5067149;28;19916;-86
2021/04/22 12:05:23;;;;;;;;;;;;;;;21.54;24.94;102798.63;5068156;28;19921;-86
2021/04/22 12:07:59;;;;;;;;;;;;;;;20.23;26.61;102794.53;5064626;28;19925;-88
2021/04/22 12:10:25;;;;;;;;;;;;;;;18.85;27.85;102801.94;5065521;28;19921;-86
2021/04/22 12:12:50;;;;;;;;;;;;;;;20.13;27.18;102800.56;5067689;28;20004;-88
2021/04/22 12:15:18;;;;;;;;;;;;;;;19.92;26.85;102805.41;5069841;28;19927;-90
2021/04/22 12:17:45;;;;;;;;;;;;;;;19.15;27.04;102808.66;5053636;28;19921;-88
2021/04/22 12:20:12;;;;;;;;;;;;;;;20.65;26.39;102798.50;5027687;28;20323;-91
2021/04/22 12:22:37;;;;;;;;;;;;;;;20.33;26.48;102799.41;5042864;28;19921;-86
2021/04/22 12:25:04;;;;;;;;;;;;;;;20.04;27.18;102806.56;5049150;28;20066;-88
2021/04/22 12:27:31;;;;;;;;;;;;;;;18.52;28.55;102805.38;5030600;28;19927;-86
2021/04/22 12:29:57;;;;;;;;;;;;;;;18.92;29.04;102808.88;5049299;28;19924;-88
2021/04/22 12:32:25;;;;;;;;;;;;;;;19.99;27.49;102805.97;5049813;28;19916;-87
2021/04/22 12:34:51;;;;;;;;;;;;;;;20.56;26.22;102808.16;5049516;28;20011;-85
2021/04/22 12:37:19;;;;;;;;;;;;;;;19.67;27.45;102805.84;5049387;28;19919;-88
2021/04/22 12:39:48;;;;;;;;;;;;;;;20.32;26.60;102811.38;5049538;28;19923;-87
2021/04/22 12:42:13;;;;;;;;;;;;;;;20.03;27.67;102813.03;5067524;28;19992;-87
2021/04/22 12:44:51;;;;;;;;;;;;;;;20.95;26.17;102801.28;5048566;28;19913;-88
2021/04/22 12:47:16;;;;;;;;;;;;;;;21.39;25.86;102805.03;5043663;28;19980;-88
2021/04/22 12:49:49;;;;;;;;;;;;;;;20.27;27.74;102801.63;5044807;28;19920;-86
2021/04/22 12:52:19;;;;;;;;;;;;;;;20.52;27.14;102807.47;5048853;28;19929;-89
2021/04/22 12:54:52;;;;;;;;;;;;;;;20.89;26.97;102799.81;5046680;28;19992;-86
2021/04/22 12:57:20;;;;;;;;;;;;;;;20.85;26.39;102802.84;5045650;28;19905;-90
2021/04/22 13:00:05;;;;;;;;;;;;;;;20.19;28.07;102797.44;5047576;28;19923;-91
2021/04/22 13:02:31;;;;;;;;;;;;;;;20.06;28.48;102803.75;5043711;28;19925;-90
2021/04/22 13:05:00;;;;;;;;;;;;;;;20.96;27.17;102800.31;5045514;28;19924;-87
2021/04/22 13:07:34;;;;;;;;;;;;;;;18.94;29.40;102803.31;5046113;28;19924;-85
2021/04/22 13:10:02;;;;;;;;;;;;;;;18.99;30.10;102803.97;5045285;28;20010;-90
2021/04/22 13:12:27;;;;;;;;;;;;;;;20.80;27.66;102805.84;5046437;28;19917;-89
2021/04/22 13:14:53;;;;;;;;;;;;;;;19.99;28.11;102800.47;5045383;28;19928;-87